Pagina principale
METAR-TAF:

METAR-TAF

Aeroporti :

Port Said, Egitto

latitudine: 31-16N, longitudine: 032-18E, altezza: 6 m

Osservazione

Il bollettino è stato emesso 1 ora e 1 minuti fa, alle 07:00 UTC
Vento 8 kt da ovest/sud-ovest
Temperature 27°C
Umidità 74%
Pressione 1012 hPa
Visibilità 10 km o più
Poco nuvoloso ad un'altezza di 2500 ft

METAR: HEPS 200700Z 24008KT 9999 FEW025 27/22 Q1012 NOSIG

Ora: 10:01 (08:01 UTC)

Previsione

Il bollettino è stato emesso 3 ore e 1 minuti fa, alle 05:00 UTC
Previsione valida dal 20 alle 06 UTC al 21 alle 12 UTC
Vento 9 kt da nord-ovest
Visibilità 10 km o più
Nubi sparse ad un'altezza di 2500 ft

TAF: HEPS 200500Z 2006/2112 31009KT 9999 SCT025

Osservazioni e previsioni meteorologiche di più di 4000 aeroporti (messaggi METAR e TAF).

Le stazioni disponibili sono rappresentate dai dischi gialli e rossi sulla carta.

Puntare il mouse per vedere il nome della stazione.

Clicca sopra per visualizzare le osservazioni e previsioni meteorologiche.

Per cambiare la mappa : fare clic sui pulsanti verdi con una croce nera per ingrandire, il pulsante verde con un trattino per diminuire, o sulla freccia verde per le mappe adiacenti.


METAR-TAF: